createdAt,value
2023-03-27T00:01:18.588Z,6.07
2023-03-27T00:03:49.944Z,2.03
2023-03-27T00:06:20.945Z,4.82
2023-03-27T00:08:50.957Z,3.47
2023-03-27T00:11:20.003Z,2.70
2023-03-27T00:13:51.269Z,4.78
2023-03-27T00:16:21.762Z,7.35
2023-03-27T00:18:50.240Z,2.97
2023-03-27T00:21:20.836Z,2.20
2023-03-27T00:23:49.305Z,4.32
2023-03-27T00:26:17.436Z,2.30
2023-03-27T00:28:45.455Z,2.80
2023-03-27T00:31:15.031Z,3.47
2023-03-27T00:33:43.419Z,3.22
2023-03-27T00:36:12.454Z,6.65
2023-03-27T00:38:43.997Z,4.85
2023-03-27T00:41:12.867Z,2.92
2023-03-27T00:43:43.878Z,4.13
2023-03-27T00:46:32.383Z,2.55
2023-03-27T00:49:04.481Z,2.90
2023-03-27T00:51:32.833Z,2.47
2023-03-27T00:54:02.223Z,2.30
2023-03-27T00:56:30.582Z,2.20
2023-03-27T00:59:01.909Z,2.50
2023-03-27T01:01:31.981Z,2.90
2023-03-27T01:04:04.062Z,1.95
2023-03-27T01:06:33.096Z,3.15
2023-03-27T01:09:02.846Z,3.75
2023-03-27T01:11:43.082Z,2.45
2023-03-27T01:14:22.272Z,3.55
2023-03-27T01:17:00.946Z,3.80
2023-03-27T01:20:02.548Z,2.42
2023-03-27T01:23:08.315Z,1.90
2023-03-27T01:26:17.777Z,4.22
2023-03-27T01:29:16.681Z,2.30
2023-03-27T01:32:06.170Z,2.72
2023-03-27T01:35:01.103Z,3.03
2023-03-27T01:37:57.265Z,2.17
2023-03-27T01:40:30.829Z,2.10
2023-03-27T01:43:05.502Z,3.03
2023-03-27T01:45:37.487Z,8.70
2023-03-27T01:48:13.382Z,2.97
2023-03-27T01:50:46.994Z,1.92
2023-03-27T01:53:19.113Z,2.35
2023-03-27T01:55:52.642Z,2.28
2023-03-27T01:58:28.079Z,5.28
2023-03-27T02:01:01.259Z,7.85
2023-03-27T02:03:34.746Z,2.30
2023-03-27T02:06:07.739Z,4.03
2023-03-27T02:08:41.270Z,2.58
2023-03-27T02:11:17.439Z,4.38
2023-03-27T02:13:49.606Z,2.20
2023-03-27T02:16:25.569Z,2.15
2023-03-27T02:18:58.944Z,2.55
2023-03-27T02:21:27.073Z,2.25
2023-03-27T02:23:56.713Z,3.47
2023-03-27T02:26:26.228Z,1.90
2023-03-27T02:29:07.287Z,3.38
2023-03-27T02:31:49.018Z,3.22
2023-03-27T02:34:33.965Z,2.33
2023-03-27T02:37:09.367Z,4.63
2023-03-27T02:40:01.582Z,4.10
2023-03-27T02:42:38.492Z,2.50
2023-03-27T02:45:15.558Z,3.50
2023-03-27T02:47:49.026Z,2.20
2023-03-27T02:50:20.555Z,5.00
2023-03-27T02:52:53.111Z,3.42
2023-03-27T02:55:24.865Z,2.05
2023-03-27T02:58:00.085Z,4.38
2023-03-27T03:00:48.759Z,2.00
2023-03-27T03:03:53.623Z,2.20
2023-03-27T03:06:44.092Z,2.17
2023-03-27T03:09:14.898Z,35.13
2023-03-27T03:11:48.209Z,2.60
2023-03-27T03:14:21.177Z,2.47
2023-03-27T03:16:49.293Z,6.93
2023-03-27T03:19:17.591Z,2.13
2023-03-27T03:21:47.058Z,2.30
2023-03-27T03:24:15.234Z,2.15
2023-03-27T03:26:45.241Z,2.58
2023-03-27T03:29:14.215Z,1.70
2023-03-27T03:31:51.572Z,3.00
2023-03-27T03:34:22.576Z,3.17
2023-03-27T03:36:50.705Z,3.35
2023-03-27T03:39:23.828Z,1.70
2023-03-27T03:41:52.344Z,3.05
2023-03-27T03:44:20.829Z,1.80
2023-03-27T03:46:49.116Z,2.13
2023-03-27T03:49:23.375Z,5.43
2023-03-27T03:52:03.168Z,4.93
2023-03-27T03:54:32.904Z,3.15
2023-03-27T03:57:03.064Z,2.42
2023-03-27T03:59:31.433Z,4.32
2023-03-27T04:02:32.035Z,2.65
2023-03-27T04:05:20.780Z,6.75
2023-03-27T04:07:52.652Z,2.80
2023-03-27T04:10:41.298Z,2.13
2023-03-27T04:13:35.412Z,2.10
2023-03-27T04:16:14.138Z,2.10
2023-03-27T04:18:48.953Z,2.40
2023-03-27T04:21:21.426Z,7.88
2023-03-27T04:23:51.236Z,2.60
2023-03-27T04:26:27.301Z,2.83
2023-03-27T04:29:15.563Z,4.00
2023-03-27T04:32:01.917Z,2.38
2023-03-27T04:34:42.159Z,5.10
2023-03-27T04:37:47.338Z,2.58
2023-03-27T04:40:46.229Z,3.28
2023-03-27T04:43:17.456Z,1.80
2023-03-27T04:45:47.442Z,3.03
2023-03-27T04:48:16.993Z,1.92
2023-03-27T04:50:49.743Z,2.17
2023-03-27T04:53:32.134Z,1.80
2023-03-27T04:56:01.313Z,6.25
2023-03-27T04:58:30.708Z,1.98
2023-03-27T05:01:00.662Z,2.47
2023-03-27T05:04:10.188Z,2.75
2023-03-27T05:07:07.338Z,2.05
2023-03-27T05:09:36.673Z,3.13
2023-03-27T05:12:05.359Z,3.25
2023-03-27T05:14:39.587Z,1.60
2023-03-27T05:17:15.367Z,3.55
2023-03-27T05:19:45.285Z,3.15
2023-03-27T05:22:15.887Z,6.43
2023-03-27T05:24:53.629Z,3.15
2023-03-27T05:27:22.525Z,2.60
2023-03-27T05:29:57.664Z,2.42
2023-03-27T05:32:25.599Z,2.00
2023-03-27T05:35:05.549Z,2.50
2023-03-27T05:37:39.657Z,2.67
2023-03-27T05:40:26.707Z,2.05
2023-03-27T05:42:56.361Z,2.03
2023-03-27T05:45:29.293Z,3.75
2023-03-27T05:47:59.264Z,1.90
2023-03-27T05:50:29.644Z,10.23
2023-03-27T05:53:01.310Z,2.70
2023-03-27T05:55:37.133Z,2.55
2023-03-27T05:58:06.565Z,3.03
2023-03-27T06:00:35.040Z,4.50
2023-03-27T06:03:04.654Z,12.95
2023-03-27T06:06:08.701Z,2.03
2023-03-27T06:08:41.350Z,14.65
2023-03-27T06:11:13.478Z,14.65
2023-03-27T06:13:48.274Z,6.72
2023-03-27T06:16:21.344Z,10.80
2023-03-27T06:19:04.365Z,5.15
2023-03-27T06:21:32.692Z,17.58
2023-03-27T06:24:02.921Z,6.20
2023-03-27T06:26:32.836Z,13.35
2023-03-27T06:29:07.880Z,5.30
2023-03-27T06:31:38.865Z,12.93
2023-03-27T06:34:19.430Z,4.15
2023-03-27T06:36:53.153Z,15.27
2023-03-27T06:39:22.503Z,5.65
2023-03-27T06:41:56.213Z,5.72
2023-03-27T06:44:36.424Z,6.57
2023-03-27T06:47:14.070Z,4.68
2023-03-27T06:50:06.655Z,5.57
2023-03-27T06:52:34.723Z,5.10
2023-03-27T06:55:28.314Z,4.22
2023-03-27T06:57:59.786Z,3.83
2023-03-27T07:00:30.873Z,8.95
2023-03-27T07:03:28.210Z,4.30
2023-03-27T07:06:00.749Z,4.15
2023-03-27T07:08:34.810Z,5.82
2023-03-27T07:13:37.521Z,6.78
2023-03-27T07:16:09.841Z,11.10
2023-03-27T07:18:37.917Z,7.10
2023-03-27T07:21:07.664Z,15.07
2023-03-27T07:23:35.741Z,9.65
2023-03-27T07:26:09.768Z,15.07
2023-03-27T07:28:55.842Z,7.55
2023-03-27T07:33:57.798Z,5.95
2023-03-27T07:36:49.099Z,9.35
2023-03-27T07:39:17.312Z,47.08
2023-03-27T07:41:48.614Z,89.18
2023-03-27T07:44:36.525Z,134.07
2023-03-27T07:47:07.721Z,144.90
2023-03-27T07:49:40.346Z,127.57
2023-03-27T07:52:16.385Z,121.70
2023-03-27T07:54:51.409Z,107.55
2023-03-27T07:57:22.011Z,104.18
2023-03-27T08:00:02.772Z,95.45
2023-03-27T08:02:45.666Z,96.63
2023-03-27T08:05:16.601Z,113.85
2023-03-27T08:07:50.837Z,86.50
2023-03-27T08:10:35.411Z,109.63
2023-03-27T08:13:03.975Z,84.40
2023-03-27T08:15:33.390Z,80.35
2023-03-27T08:18:03.570Z,82.50
2023-03-27T08:20:32.108Z,73.72
2023-03-27T08:23:00.969Z,79.90
2023-03-27T08:25:33.443Z,80.95
2023-03-27T08:28:04.277Z,74.18
2023-03-27T08:30:35.295Z,80.30
2023-03-27T08:33:04.098Z,52.45
2023-03-27T08:35:33.234Z,67.45
2023-03-27T08:38:01.894Z,78.20
2023-03-27T08:40:52.198Z,72.85
2023-03-27T08:43:32.969Z,62.75
2023-03-27T08:46:07.693Z,73.38
2023-03-27T08:48:44.998Z,52.05
2023-03-27T08:51:18.587Z,72.80
2023-03-27T08:53:52.975Z,52.08
2023-03-27T08:56:27.087Z,56.97
2023-03-27T08:58:56.306Z,60.17
2023-03-27T09:01:35.400Z,74.88
2023-03-27T09:04:18.749Z,75.00
2023-03-27T09:06:59.940Z,70.47
2023-03-27T09:09:40.116Z,59.22
2023-03-27T09:12:25.345Z,65.95
2023-03-27T09:14:58.260Z,70.78
2023-03-27T09:17:33.992Z,70.45
2023-03-27T09:20:18.400Z,59.88
2023-03-27T09:22:53.581Z,55.70
2023-03-27T09:25:42.251Z,53.22
2023-03-27T09:28:32.912Z,47.88
2023-03-27T09:31:20.271Z,57.17
2023-03-27T09:33:51.090Z,64.30
2023-03-27T09:36:21.795Z,62.25
2023-03-27T09:38:53.405Z,64.60
2023-03-27T09:41:30.621Z,39.70
2023-03-27T09:44:05.008Z,49.75
2023-03-27T09:46:38.849Z,58.80
2023-03-27T09:49:14.498Z,41.30
2023-03-27T09:51:48.734Z,54.72
2023-03-27T09:54:52.383Z,52.72
2023-03-27T09:57:22.146Z,51.05
2023-03-27T09:59:59.490Z,44.80
2023-03-27T10:02:30.625Z,43.70
2023-03-27T10:05:04.199Z,46.85
2023-03-27T10:07:38.970Z,63.70
2023-03-27T10:10:20.026Z,31.27
2023-03-27T10:13:14.043Z,38.13
2023-03-27T10:15:49.433Z,60.30
2023-03-27T10:18:28.655Z,43.97
2023-03-27T10:21:11.813Z,37.33
2023-03-27T10:23:44.278Z,42.30
2023-03-27T10:26:26.620Z,44.28
2023-03-27T10:29:01.556Z,42.25
2023-03-27T10:31:51.255Z,45.25
2023-03-27T10:34:34.669Z,42.15
2023-03-27T10:37:20.490Z,27.17
2023-03-27T10:39:53.669Z,35.00
2023-03-27T10:42:34.186Z,32.65
2023-03-27T10:45:02.477Z,21.85
2023-03-27T10:47:33.860Z,23.17
2023-03-27T10:50:08.138Z,26.58
2023-03-27T10:52:54.491Z,25.88
2023-03-27T10:55:44.866Z,53.33
2023-03-27T10:58:27.122Z,27.15
2023-03-27T11:01:03.985Z,24.60
2023-03-27T11:03:39.638Z,23.88
2023-03-27T11:06:15.595Z,27.50
2023-03-27T11:09:05.731Z,23.83
2023-03-27T11:11:40.891Z,16.58
2023-03-27T11:14:18.515Z,22.23
2023-03-27T11:16:53.155Z,23.08
2023-03-27T11:19:54.790Z,20.10
2023-03-27T11:22:46.999Z,25.20
2023-03-27T11:25:40.955Z,23.35
2023-03-27T11:28:23.693Z,34.28
2023-03-27T11:30:56.554Z,39.35
2023-03-27T11:33:39.252Z,25.17
2023-03-27T11:36:37.832Z,13.68
2023-03-27T11:39:17.342Z,15.13
2023-03-27T11:41:52.886Z,21.10
2023-03-27T11:44:23.397Z,16.42
2023-03-27T11:47:32.545Z,18.10
2023-03-27T11:50:24.280Z,20.23
2023-03-27T11:53:09.597Z,21.20
2023-03-27T11:56:11.429Z,22.95
2023-03-27T11:59:06.077Z,32.65
2023-03-27T12:01:42.430Z,16.17
2023-03-27T12:04:30.124Z,22.60
2023-03-27T12:07:36.591Z,25.88
2023-03-27T12:10:28.390Z,19.98
2023-03-27T12:13:38.533Z,22.75
2023-03-27T12:16:30.585Z,17.67
2023-03-27T12:19:26.952Z,27.83
2023-03-27T12:22:24.583Z,22.13
2023-03-27T12:25:09.236Z,14.15
2023-03-27T12:28:22.563Z,31.80
2023-03-27T12:31:20.082Z,14.18
2023-03-27T12:34:00.698Z,16.30
2023-03-27T12:36:34.289Z,15.02
2023-03-27T12:39:02.310Z,23.17
2023-03-27T12:41:33.892Z,17.13
2023-03-27T12:44:14.413Z,17.50
2023-03-27T12:47:09.124Z,24.58
2023-03-27T12:49:47.973Z,19.55
2023-03-27T12:52:21.818Z,15.55
2023-03-27T12:55:36.166Z,20.23
2023-03-27T12:58:06.134Z,17.70
2023-03-27T13:01:00.346Z,11.85
2023-03-27T13:04:26.092Z,19.75
2023-03-27T13:07:05.254Z,14.38
2023-03-27T13:10:16.119Z,16.85
2023-03-27T13:13:05.674Z,16.60
2023-03-27T13:15:58.758Z,12.10
2023-03-27T13:18:56.642Z,11.63
2023-03-27T13:21:38.724Z,11.38
2023-03-27T13:24:33.506Z,14.60
2023-03-27T13:27:15.075Z,18.17
2023-03-27T13:29:43.745Z,11.60
2023-03-27T13:32:38.240Z,14.57
2023-03-27T13:35:40.620Z,9.93
2023-03-27T13:38:16.969Z,10.50
2023-03-27T13:41:45.894Z,15.65
2023-03-27T13:44:47.150Z,19.10
2023-03-27T13:47:46.511Z,15.35
2023-03-27T13:50:41.754Z,15.30
2023-03-27T13:53:24.099Z,12.38
2023-03-27T13:56:18.211Z,14.40
2023-03-27T13:59:55.476Z,13.70
2023-03-27T14:03:04.374Z,15.57
2023-03-27T14:06:04.878Z,15.50
2023-03-27T14:08:43.483Z,9.55
2023-03-27T14:11:43.124Z,8.95
2023-03-27T14:14:32.876Z,13.15
2023-03-27T14:17:21.849Z,15.82
2023-03-27T14:20:14.493Z,14.90
2023-03-27T14:22:56.399Z,10.35
2023-03-27T14:25:35.112Z,8.80
2023-03-27T14:28:33.993Z,7.10
2023-03-27T14:31:08.407Z,6.07
2023-03-27T14:33:52.946Z,5.85
2023-03-27T14:36:41.861Z,5.95
2023-03-27T14:39:19.253Z,8.95
2023-03-27T14:41:55.780Z,8.55
2023-03-27T14:44:29.783Z,9.05
2023-03-27T14:47:05.741Z,7.68
2023-03-27T14:49:40.196Z,9.93
2023-03-27T14:52:11.693Z,5.28
2023-03-27T14:54:59.397Z,6.40
2023-03-27T14:57:37.045Z,6.28
2023-03-27T15:00:16.687Z,7.25
2023-03-27T15:02:48.976Z,12.15
2023-03-27T15:05:22.300Z,6.18
2023-03-27T15:07:55.560Z,10.82
2023-03-27T15:10:42.177Z,13.45
2023-03-27T15:13:38.696Z,6.93
2023-03-27T15:16:18.123Z,15.30
2023-03-27T15:19:05.094Z,5.90
2023-03-27T15:21:45.278Z,7.65
2023-03-27T15:24:21.468Z,5.22
2023-03-27T15:26:54.255Z,11.43
2023-03-27T15:29:32.202Z,8.80
2023-03-27T15:34:57.973Z,7.03
2023-03-27T15:37:28.500Z,6.10
2023-03-27T15:40:28.483Z,7.28
2023-03-27T15:43:03.996Z,7.65
2023-03-27T15:45:42.186Z,5.72
2023-03-27T15:48:21.789Z,7.13
2023-03-27T15:50:57.289Z,6.55
2023-03-27T15:53:34.997Z,10.93
2023-03-27T15:56:06.901Z,7.70
2023-03-27T15:58:44.851Z,11.82
2023-03-27T16:01:19.494Z,7.65
2023-03-27T16:03:51.316Z,7.07
2023-03-27T16:06:33.445Z,6.00
2023-03-27T16:09:02.612Z,6.65
2023-03-27T16:11:41.627Z,11.50
2023-03-27T16:14:30.984Z,4.68
2023-03-27T16:17:20.860Z,6.30
2023-03-27T16:19:55.548Z,5.63
2023-03-27T16:22:25.521Z,5.15
2023-03-27T16:24:54.135Z,11.38
2023-03-27T16:27:28.250Z,14.55
2023-03-27T16:29:56.261Z,6.00
2023-03-27T16:32:30.105Z,15.90
2023-03-27T16:34:59.491Z,6.80
2023-03-27T16:37:28.105Z,8.52
2023-03-27T16:39:56.240Z,8.95
2023-03-27T16:42:26.471Z,4.90
2023-03-27T16:44:55.606Z,6.20
2023-03-27T16:47:26.983Z,14.55
2023-03-27T16:50:10.417Z,9.00
2023-03-27T16:52:41.160Z,12.48
2023-03-27T16:55:11.811Z,7.63
2023-03-27T16:57:47.450Z,5.97
2023-03-27T17:00:20.465Z,10.93
2023-03-27T17:02:51.744Z,12.07
2023-03-27T17:05:20.375Z,4.97
2023-03-27T17:07:50.119Z,5.65
2023-03-27T17:10:19.218Z,5.55
2023-03-27T17:12:49.440Z,7.97
2023-03-27T17:15:18.278Z,7.65
2023-03-27T17:17:49.055Z,5.03
2023-03-27T17:20:18.358Z,6.43
2023-03-27T17:22:47.565Z,5.85
2023-03-27T17:25:18.578Z,9.38
2023-03-27T17:27:47.013Z,12.27
2023-03-27T17:30:21.418Z,18.45
2023-03-27T17:32:55.615Z,8.95
2023-03-27T17:35:24.749Z,22.92
2023-03-27T17:37:53.492Z,10.45
2023-03-27T17:40:23.936Z,6.18
2023-03-27T17:42:54.283Z,5.65
2023-03-27T17:45:24.058Z,6.40
2023-03-27T17:47:55.581Z,15.57
2023-03-27T17:50:24.225Z,6.13
2023-03-27T17:52:52.212Z,9.70
2023-03-27T17:55:22.393Z,9.05
2023-03-27T17:58:05.891Z,7.40
2023-03-27T18:00:36.510Z,8.27
2023-03-27T18:03:06.429Z,8.90
2023-03-27T18:05:37.532Z,12.85
2023-03-27T18:08:06.116Z,7.88
2023-03-27T18:10:37.397Z,8.48
2023-03-27T18:13:07.317Z,10.40
2023-03-27T18:15:35.247Z,12.85
2023-03-27T18:18:03.824Z,6.70
2023-03-27T18:20:32.046Z,6.40
2023-03-27T18:23:00.324Z,6.43
2023-03-27T18:25:28.353Z,8.32
2023-03-27T18:27:56.297Z,12.43
2023-03-27T18:30:25.619Z,6.95
2023-03-27T18:32:53.572Z,4.75
2023-03-27T18:35:22.094Z,11.82
2023-03-27T18:37:50.018Z,10.38
2023-03-27T18:40:19.138Z,5.22
2023-03-27T18:42:47.223Z,7.05
2023-03-27T18:45:16.792Z,4.75
2023-03-27T18:47:46.263Z,5.53
2023-03-27T18:50:15.486Z,4.75
2023-03-27T18:52:43.620Z,8.27
2023-03-27T18:55:12.998Z,4.68
2023-03-27T18:57:40.992Z,6.68
2023-03-27T19:00:13.836Z,6.57
2023-03-27T19:02:41.988Z,6.03
2023-03-27T19:05:12.032Z,6.20
2023-03-27T19:07:44.650Z,14.45
2023-03-27T19:10:14.092Z,10.52
2023-03-27T19:12:46.263Z,4.85
2023-03-27T19:15:35.624Z,10.45
2023-03-27T19:18:29.837Z,3.35
2023-03-27T19:21:38.553Z,21.45
2023-03-27T19:24:14.606Z,4.93
2023-03-27T19:26:45.206Z,4.82
2023-03-27T19:29:13.162Z,4.47
2023-03-27T19:31:45.395Z,4.78
2023-03-27T19:34:15.370Z,10.13
2023-03-27T19:36:44.950Z,3.55
2023-03-27T19:39:12.963Z,6.07
2023-03-27T19:41:42.615Z,5.97
2023-03-27T19:44:10.758Z,11.57
2023-03-27T19:46:38.937Z,6.32
2023-03-27T19:49:09.875Z,6.68
2023-03-27T19:51:50.497Z,4.70
2023-03-27T19:54:19.067Z,7.68
2023-03-27T19:56:47.114Z,4.70
2023-03-27T19:59:24.126Z,4.72
2023-03-27T20:01:58.305Z,3.35
2023-03-27T20:04:26.440Z,4.90
2023-03-27T20:07:01.922Z,3.55
2023-03-27T20:09:30.346Z,3.15
2023-03-27T20:11:58.308Z,10.73
2023-03-27T20:14:26.448Z,5.43
2023-03-27T20:16:54.362Z,3.17
2023-03-27T20:19:26.928Z,3.47
2023-03-27T20:21:58.770Z,5.65
2023-03-27T20:24:33.428Z,3.47
2023-03-27T20:27:02.133Z,4.00
2023-03-27T20:29:32.374Z,3.20
2023-03-27T20:32:00.475Z,6.28
2023-03-27T20:34:28.573Z,4.53
2023-03-27T20:37:00.346Z,4.97
2023-03-27T20:39:38.644Z,4.18
2023-03-27T20:42:14.776Z,6.88
2023-03-27T20:44:43.357Z,3.50
2023-03-27T20:47:14.990Z,6.63
2023-03-27T20:49:46.318Z,4.85
2023-03-27T20:52:17.126Z,6.03
2023-03-27T20:54:47.392Z,2.83
2023-03-27T20:57:17.221Z,2.17
2023-03-27T20:59:47.494Z,2.67
2023-03-27T21:02:18.627Z,3.67
2023-03-27T21:04:48.754Z,3.33
2023-03-27T21:07:16.867Z,2.90
2023-03-27T21:09:49.234Z,1.80
2023-03-27T21:12:17.238Z,2.92
2023-03-27T21:14:45.190Z,4.10
2023-03-27T21:17:19.856Z,2.78
2023-03-27T21:19:50.638Z,4.68
2023-03-27T21:22:19.837Z,6.68
2023-03-27T21:24:49.121Z,2.13
2023-03-27T21:27:22.514Z,2.53
2023-03-27T21:29:50.780Z,3.17
2023-03-27T21:32:18.972Z,2.25
2023-03-27T21:34:52.590Z,3.88
2023-03-27T21:37:21.840Z,2.80
2023-03-27T21:39:51.319Z,3.22
2023-03-27T21:42:21.847Z,6.63
2023-03-27T21:44:53.643Z,3.03
2023-03-27T21:47:21.933Z,2.95
2023-03-27T21:49:52.678Z,3.92
2023-03-27T21:52:23.461Z,8.63
2023-03-27T21:55:02.541Z,1.90
2023-03-27T21:57:34.511Z,2.97
2023-03-27T22:00:04.364Z,8.82
2023-03-27T22:02:41.043Z,2.78
2023-03-27T22:05:09.779Z,4.47
2023-03-27T22:07:37.995Z,13.50
2023-03-27T22:10:08.520Z,3.38
2023-03-27T22:12:42.558Z,2.30
2023-03-27T22:15:11.603Z,2.75
2023-03-27T22:17:45.299Z,2.90
2023-03-27T22:20:13.380Z,2.15
2023-03-27T22:22:44.062Z,3.95
2023-03-27T22:25:14.481Z,11.32
2023-03-27T22:27:42.679Z,5.47
2023-03-27T22:30:19.264Z,5.70
2023-03-27T22:32:49.371Z,2.83
2023-03-27T22:35:17.584Z,2.78
2023-03-27T22:37:45.549Z,2.20
2023-03-27T22:40:15.030Z,5.18
2023-03-27T22:42:44.325Z,5.13
2023-03-27T22:45:13.298Z,3.65
2023-03-27T22:47:41.278Z,2.65
2023-03-27T22:50:11.264Z,4.75
2023-03-27T22:52:42.406Z,5.32
2023-03-27T22:55:12.732Z,3.33
2023-03-27T22:57:42.117Z,4.05
2023-03-27T23:00:11.207Z,2.30
2023-03-27T23:02:39.224Z,3.88
2023-03-27T23:05:07.948Z,2.92
2023-03-27T23:07:36.019Z,6.28
2023-03-27T23:10:04.152Z,2.40
2023-03-27T23:12:32.127Z,2.55
2023-03-27T23:15:01.697Z,3.45
2023-03-27T23:17:30.426Z,3.30
2023-03-27T23:20:16.595Z,3.60
2023-03-27T23:22:45.234Z,2.00
2023-03-27T23:25:13.509Z,4.72
2023-03-27T23:27:44.234Z,2.65
2023-03-27T23:30:14.181Z,2.17
2023-03-27T23:32:47.494Z,3.25
2023-03-27T23:35:16.850Z,2.58
2023-03-27T23:37:47.617Z,1.80
2023-03-27T23:40:15.639Z,3.05
2023-03-27T23:42:43.568Z,5.95
2023-03-27T23:45:13.461Z,4.22
2023-03-27T23:47:41.648Z,2.45
2023-03-27T23:50:10.424Z,2.15
2023-03-27T23:52:40.298Z,1.95
2023-03-27T23:55:12.659Z,3.95
2023-03-27T23:57:42.191Z,2.90
